<?xml version="1.0" encoding="UTF-8" standalone="no" ?>
<gpx xmlns="http://www.topografix.com/GPX/1/1" xmlns:xsi="http://www.w3.org/2001/XMLSchema-instance" xsi:schemaLocation="http://www.topografix.com/GPX/1/1 http://www.topografix.com/GPX/1/1/gpx.xsd" version="1.1" creator="VisuGPX - https://www.visugpx.com">
  <metadata>
    <name>Plaine Joux - Ajonc</name>
    <desc><![CDATA[File with points/tracks from Locus Map/3.22.2]]></desc>
  </metadata>
  <trk>
    <name><![CDATA[2000-01-01 Plaine Joux]]></name>
    <trkseg>
      <trkpt lat="46.19775" lon="6.46582">
        <ele>1311.7</ele>
        <time>2000-01-01T14:11:36.318Z</time>
      </trkpt>
      <trkpt lat="46.19775" lon="6.46583">
        <ele>1310.5</ele>
        <time>2000-01-01T14:13:00.379Z</time>
      </trkpt>
      <trkpt lat="46.19778" lon="6.46583">
        <ele>1310.57</ele>
        <time>2000-01-01T14:13:10.276Z</time>
      </trkpt>
      <trkpt lat="46.19779" lon="6.46581">
        <ele>1312.17</ele>
        <time>2000-01-01T14:20:40.442Z</time>
      </trkpt>
      <trkpt lat="46.19781" lon="6.46578">
        <ele>1312.5</ele>
        <time>2000-01-01T14:20:50.227Z</time>
      </trkpt>
      <trkpt lat="46.19779" lon="6.4658">
        <ele>1312.5</ele>
        <time>2000-01-01T14:21:03.381Z</time>
      </trkpt>
      <trkpt lat="46.19779" lon="6.46581">
        <ele>1312.4</ele>
        <time>2000-01-01T14:21:15.369Z</time>
      </trkpt>
      <trkpt lat="46.19774" lon="6.46568">
        <ele>1312.08</ele>
        <time>2000-01-01T14:21:24.879Z</time>
      </trkpt>
      <trkpt lat="46.19773" lon="6.46585">
        <ele>1313.73</ele>
        <time>2000-01-01T14:21:34.434Z</time>
      </trkpt>
      <trkpt lat="46.19775" lon="6.46584">
        <ele>1314.2</ele>
        <time>2000-01-01T14:21:44.220Z</time>
      </trkpt>
      <trkpt lat="46.19779" lon="6.46573">
        <ele>1315.62</ele>
        <time>2000-01-01T14:23:23.470Z</time>
      </trkpt>
      <trkpt lat="46.1976" lon="6.46574">
        <ele>1313.41</ele>
        <time>2000-01-01T14:23:33.276Z</time>
      </trkpt>
      <trkpt lat="46.19749" lon="6.46571">
        <ele>1311.71</ele>
        <time>2000-01-01T14:23:43.241Z</time>
      </trkpt>
      <trkpt lat="46.19741" lon="6.46622">
        <ele>1308.32</ele>
        <time>2000-01-01T14:24:14.407Z</time>
      </trkpt>
      <trkpt lat="46.1974" lon="6.46624">
        <ele>1307</ele>
        <time>2000-01-01T14:24:24.277Z</time>
      </trkpt>
      <trkpt lat="46.19732" lon="6.46674">
        <ele>1307.3</ele>
        <time>2000-01-01T14:30:39.371Z</time>
      </trkpt>
      <trkpt lat="46.19731" lon="6.46678">
        <ele>1307.5</ele>
        <time>2000-01-01T14:30:49.238Z</time>
      </trkpt>
      <trkpt lat="46.19727" lon="6.46704">
        <ele>1305.93</ele>
        <time>2000-01-01T14:31:20.321Z</time>
      </trkpt>
      <trkpt lat="46.19727" lon="6.46722">
        <ele>1305.21</ele>
        <time>2000-01-01T14:31:29.336Z</time>
      </trkpt>
      <trkpt lat="46.19728" lon="6.46736">
        <ele>1305.2</ele>
        <time>2000-01-01T14:31:39.303Z</time>
      </trkpt>
      <trkpt lat="46.19734" lon="6.46787">
        <ele>1300.7</ele>
        <time>2000-01-01T14:34:25.353Z</time>
      </trkpt>
      <trkpt lat="46.19735" lon="6.46791">
        <ele>1299.3</ele>
        <time>2000-01-01T14:34:35.227Z</time>
      </trkpt>
      <trkpt lat="46.1975" lon="6.46838">
        <ele>1298.47</ele>
        <time>2000-01-01T14:35:06.381Z</time>
      </trkpt>
      <trkpt lat="46.19752" lon="6.46842">
        <ele>1298.5</ele>
        <time>2000-01-01T14:35:16.186Z</time>
      </trkpt>
      <trkpt lat="46.19761" lon="6.46892">
        <ele>1299.93</ele>
        <time>2000-01-01T14:35:50.393Z</time>
      </trkpt>
      <trkpt lat="46.19761" lon="6.46895">
        <ele>1300.6</ele>
        <time>2000-01-01T14:36:00.344Z</time>
      </trkpt>
      <trkpt lat="46.19776" lon="6.46943">
        <ele>1305.17</ele>
        <time>2000-01-01T14:36:39.323Z</time>
      </trkpt>
      <trkpt lat="46.19777" lon="6.46946">
        <ele>1307</ele>
        <time>2000-01-01T14:36:49.279Z</time>
      </trkpt>
      <trkpt lat="46.19747" lon="6.46966">
        <ele>1308.35</ele>
        <time>2000-01-01T14:37:53.667Z</time>
      </trkpt>
      <trkpt lat="46.19725" lon="6.46973">
        <ele>1309.82</ele>
        <time>2000-01-01T14:38:03.233Z</time>
      </trkpt>
      <trkpt lat="46.19721" lon="6.46975">
        <ele>1309.5</ele>
        <time>2000-01-01T14:38:13.181Z</time>
      </trkpt>
      <trkpt lat="46.19686" lon="6.46984">
        <ele>1313.85</ele>
        <time>2000-01-01T14:40:44.329Z</time>
      </trkpt>
      <trkpt lat="46.19684" lon="6.46985">
        <ele>1315.6</ele>
        <time>2000-01-01T14:40:54.179Z</time>
      </trkpt>
      <trkpt lat="46.19656" lon="6.4702">
        <ele>1317.4</ele>
        <time>2000-01-01T14:41:55.296Z</time>
      </trkpt>
      <trkpt lat="46.19655" lon="6.47023">
        <ele>1318.2</ele>
        <time>2000-01-01T14:42:04.300Z</time>
      </trkpt>
      <trkpt lat="46.1963" lon="6.4706">
        <ele>1321.42</ele>
        <time>2000-01-01T14:42:51.249Z</time>
      </trkpt>
      <trkpt lat="46.19629" lon="6.47062">
        <ele>1322.9</ele>
        <time>2000-01-01T14:43:00.323Z</time>
      </trkpt>
      <trkpt lat="46.19599" lon="6.47094">
        <ele>1323.65</ele>
        <time>2000-01-01T14:43:52.315Z</time>
      </trkpt>
      <trkpt lat="46.19598" lon="6.47098">
        <ele>1323.8</ele>
        <time>2000-01-01T14:44:02.213Z</time>
      </trkpt>
      <trkpt lat="46.19595" lon="6.47151">
        <ele>1324.33</ele>
        <time>2000-01-01T14:48:38.338Z</time>
      </trkpt>
      <trkpt lat="46.19596" lon="6.47154">
        <ele>1324.4</ele>
        <time>2000-01-01T14:48:48.181Z</time>
      </trkpt>
      <trkpt lat="46.19604" lon="6.4718">
        <ele>1325.3</ele>
        <time>2000-01-01T14:49:34.270Z</time>
      </trkpt>
      <trkpt lat="46.19607" lon="6.47206">
        <ele>1325.94</ele>
        <time>2000-01-01T14:49:44.232Z</time>
      </trkpt>
      <trkpt lat="46.19614" lon="6.47232">
        <ele>1326.84</ele>
        <time>2000-01-01T14:49:53.461Z</time>
      </trkpt>
      <trkpt lat="46.19621" lon="6.47261">
        <ele>1327.85</ele>
        <time>2000-01-01T14:50:03.316Z</time>
      </trkpt>
      <trkpt lat="46.19622" lon="6.47266">
        <ele>1328</ele>
        <time>2000-01-01T14:50:13.174Z</time>
      </trkpt>
      <trkpt lat="46.1964" lon="6.47312">
        <ele>1331.38</ele>
        <time>2000-01-01T14:50:55.253Z</time>
      </trkpt>
      <trkpt lat="46.1964" lon="6.47315">
        <ele>1332.4</ele>
        <time>2000-01-01T14:51:05.242Z</time>
      </trkpt>
      <trkpt lat="46.19649" lon="6.47365">
        <ele>1333.08</ele>
        <time>2000-01-01T14:51:54.277Z</time>
      </trkpt>
      <trkpt lat="46.1965" lon="6.47368">
        <ele>1333.8</ele>
        <time>2000-01-01T14:52:04.193Z</time>
      </trkpt>
      <trkpt lat="46.19652" lon="6.4742">
        <ele>1336.13</ele>
        <time>2000-01-01T14:53:33.324Z</time>
      </trkpt>
      <trkpt lat="46.19652" lon="6.47423">
        <ele>1337.5</ele>
        <time>2000-01-01T14:53:43.188Z</time>
      </trkpt>
      <trkpt lat="46.19642" lon="6.47472">
        <ele>1341.32</ele>
        <time>2000-01-01T14:54:52.252Z</time>
      </trkpt>
      <trkpt lat="46.19641" lon="6.47474">
        <ele>1342.7</ele>
        <time>2000-01-01T14:55:02.231Z</time>
      </trkpt>
      <trkpt lat="46.19647" lon="6.47525">
        <ele>1346.45</ele>
        <time>2000-01-01T14:56:01.447Z</time>
      </trkpt>
      <trkpt lat="46.19647" lon="6.47527">
        <ele>1347.7</ele>
        <time>2000-01-01T14:56:11.227Z</time>
      </trkpt>
      <trkpt lat="46.19658" lon="6.47578">
        <ele>1347.17</ele>
        <time>2000-01-01T15:07:58.287Z</time>
      </trkpt>
      <trkpt lat="46.19659" lon="6.47582">
        <ele>1346.9</ele>
        <time>2000-01-01T15:08:08.175Z</time>
      </trkpt>
      <trkpt lat="46.19683" lon="6.47623">
        <ele>1348.55</ele>
        <time>2000-01-01T15:10:20.250Z</time>
      </trkpt>
      <trkpt lat="46.19684" lon="6.47625">
        <ele>1349.3</ele>
        <time>2000-01-01T15:10:30.160Z</time>
      </trkpt>
      <trkpt lat="46.19696" lon="6.47674">
        <ele>1351.25</ele>
        <time>2000-01-01T15:11:13.251Z</time>
      </trkpt>
      <trkpt lat="46.19697" lon="6.47677">
        <ele>1352.5</ele>
        <time>2000-01-01T15:11:23.253Z</time>
      </trkpt>
      <trkpt lat="46.19717" lon="6.4772">
        <ele>1355.35</ele>
        <time>2000-01-01T15:12:09.259Z</time>
      </trkpt>
      <trkpt lat="46.19733" lon="6.47736">
        <ele>1356.57</ele>
        <time>2000-01-01T15:12:19.219Z</time>
      </trkpt>
      <trkpt lat="46.19764" lon="6.47763">
        <ele>1358.7</ele>
        <time>2000-01-01T15:24:17.300Z</time>
      </trkpt>
      <trkpt lat="46.19765" lon="6.47764">
        <ele>1359.6</ele>
        <time>2000-01-01T15:24:27.154Z</time>
      </trkpt>
      <trkpt lat="46.19795" lon="6.47795">
        <ele>1358.7</ele>
        <time>2000-01-01T15:26:19.256Z</time>
      </trkpt>
      <trkpt lat="46.19796" lon="6.47797">
        <ele>1357.9</ele>
        <time>2000-01-01T15:26:29.242Z</time>
      </trkpt>
      <trkpt lat="46.19827" lon="6.47824">
        <ele>1356.48</ele>
        <time>2000-01-01T15:27:10.331Z</time>
      </trkpt>
      <trkpt lat="46.19829" lon="6.47825">
        <ele>1356.1</ele>
        <time>2000-01-01T15:27:20.145Z</time>
      </trkpt>
      <trkpt lat="46.19855" lon="6.47861">
        <ele>1354.9</ele>
        <time>2000-01-01T15:28:56.255Z</time>
      </trkpt>
      <trkpt lat="46.19856" lon="6.47864">
        <ele>1354.7</ele>
        <time>2000-01-01T15:29:06.144Z</time>
      </trkpt>
      <trkpt lat="46.19881" lon="6.47902">
        <ele>1355.07</ele>
        <time>2000-01-01T15:29:58.471Z</time>
      </trkpt>
      <trkpt lat="46.19882" lon="6.47904">
        <ele>1355.1</ele>
        <time>2000-01-01T15:30:08.153Z</time>
      </trkpt>
      <trkpt lat="46.19903" lon="6.47947">
        <ele>1355.55</ele>
        <time>2000-01-01T15:31:24.183Z</time>
      </trkpt>
      <trkpt lat="46.19903" lon="6.47948">
        <ele>1355.6</ele>
        <time>2000-01-01T15:31:34.182Z</time>
      </trkpt>
      <trkpt lat="46.19921" lon="6.47994">
        <ele>1354.92</ele>
        <time>2000-01-01T15:34:44.190Z</time>
      </trkpt>
      <trkpt lat="46.19922" lon="6.47996">
        <ele>1354.9</ele>
        <time>2000-01-01T15:34:54.212Z</time>
      </trkpt>
      <trkpt lat="46.19935" lon="6.48044">
        <ele>1358.35</ele>
        <time>2000-01-01T15:40:58.180Z</time>
      </trkpt>
      <trkpt lat="46.19935" lon="6.48045">
        <ele>1359.7</ele>
        <time>2000-01-01T15:41:08.122Z</time>
      </trkpt>
      <trkpt lat="46.19952" lon="6.48091">
        <ele>1364.12</ele>
        <time>2000-01-01T15:42:25.170Z</time>
      </trkpt>
      <trkpt lat="46.19953" lon="6.48093">
        <ele>1365.8</ele>
        <time>2000-01-01T15:42:34.171Z</time>
      </trkpt>
      <trkpt lat="46.19975" lon="6.48134">
        <ele>1367.75</ele>
        <time>2000-01-01T15:43:41.241Z</time>
      </trkpt>
      <trkpt lat="46.19976" lon="6.48134">
        <ele>1368.3</ele>
        <time>2000-01-01T15:43:51.197Z</time>
      </trkpt>
      <trkpt lat="46.2001" lon="6.48152">
        <ele>1369.95</ele>
        <time>2000-01-01T15:44:43.202Z</time>
      </trkpt>
      <trkpt lat="46.20011" lon="6.48153">
        <ele>1370.8</ele>
        <time>2000-01-01T15:44:53.179Z</time>
      </trkpt>
      <trkpt lat="46.20044" lon="6.48175">
        <ele>1374.25</ele>
        <time>2000-01-01T15:46:19.263Z</time>
      </trkpt>
      <trkpt lat="46.20046" lon="6.48176">
        <ele>1375.5</ele>
        <time>2000-01-01T15:46:29.170Z</time>
      </trkpt>
      <trkpt lat="46.2008" lon="6.48193">
        <ele>1377</ele>
        <time>2000-01-01T15:47:12.221Z</time>
      </trkpt>
      <trkpt lat="46.20082" lon="6.48196">
        <ele>1378.1</ele>
        <time>2000-01-01T15:47:22.117Z</time>
      </trkpt>
      <trkpt lat="46.20106" lon="6.48235">
        <ele>1381.17</ele>
        <time>2000-01-01T15:48:45.217Z</time>
      </trkpt>
      <trkpt lat="46.20118" lon="6.4824">
        <ele>1383.28</ele>
        <time>2000-01-01T15:48:54.314Z</time>
      </trkpt>
      <trkpt lat="46.2013" lon="6.48245">
        <ele>1384.82</ele>
        <time>2000-01-01T15:49:04.220Z</time>
      </trkpt>
      <trkpt lat="46.20149" lon="6.48245">
        <ele>1388.73</ele>
        <time>2000-01-01T15:51:00.235Z</time>
      </trkpt>
      <trkpt lat="46.20166" lon="6.48229">
        <ele>1391.85</ele>
        <time>2000-01-01T15:51:10.371Z</time>
      </trkpt>
      <trkpt lat="46.20177" lon="6.48207">
        <ele>1394.4</ele>
        <time>2000-01-01T15:51:20.244Z</time>
      </trkpt>
      <trkpt lat="46.20184" lon="6.48191">
        <ele>1396.18</ele>
        <time>2000-01-01T15:51:30.190Z</time>
      </trkpt>
      <trkpt lat="46.20185" lon="6.48165">
        <ele>1399.2</ele>
        <time>2000-01-01T16:00:34.150Z</time>
      </trkpt>
      <trkpt lat="46.20186" lon="6.48149">
        <ele>1402.59</ele>
        <time>2000-01-01T16:00:44.171Z</time>
      </trkpt>
      <trkpt lat="46.20177" lon="6.48135">
        <ele>1403.2</ele>
        <time>2000-01-01T16:01:05.308Z</time>
      </trkpt>
      <trkpt lat="46.20173" lon="6.4813">
        <ele>1403.2</ele>
        <time>2000-01-01T16:01:15.087Z</time>
      </trkpt>
      <trkpt lat="46.20175" lon="6.48118">
        <ele>1404.03</ele>
        <time>2000-01-01T16:01:39.180Z</time>
      </trkpt>
      <trkpt lat="46.20175" lon="6.48096">
        <ele>1405.21</ele>
        <time>2000-01-01T16:01:48.325Z</time>
      </trkpt>
      <trkpt lat="46.20176" lon="6.48092">
        <ele>1405.5</ele>
        <time>2000-01-01T16:01:58.086Z</time>
      </trkpt>
      <trkpt lat="46.20184" lon="6.48071">
        <ele>1408.5</ele>
        <time>2000-01-01T16:02:08.097Z</time>
      </trkpt>
      <trkpt lat="46.20193" lon="6.48035">
        <ele>1413.23</ele>
        <time>2000-01-01T16:06:07.188Z</time>
      </trkpt>
      <trkpt lat="46.20204" lon="6.48021">
        <ele>1416.78</ele>
        <time>2000-01-01T16:06:17.222Z</time>
      </trkpt>
      <trkpt lat="46.20205" lon="6.4802">
        <ele>1417</ele>
        <time>2000-01-01T16:06:27.159Z</time>
      </trkpt>
      <trkpt lat="46.20233" lon="6.47988">
        <ele>1424.73</ele>
        <time>2000-01-01T16:06:53.218Z</time>
      </trkpt>
      <trkpt lat="46.20235" lon="6.47986">
        <ele>1427.9</ele>
        <time>2000-01-01T16:07:03.083Z</time>
      </trkpt>
      <trkpt lat="46.20265" lon="6.47974">
        <ele>1432.03</ele>
        <time>2000-01-01T16:07:28.471Z</time>
      </trkpt>
      <trkpt lat="46.2027" lon="6.47973">
        <ele>1433.9</ele>
        <time>2000-01-01T16:07:38.085Z</time>
      </trkpt>
      <trkpt lat="46.203" lon="6.47982">
        <ele>1434.73</ele>
        <time>2000-01-01T16:08:21.258Z</time>
      </trkpt>
      <trkpt lat="46.20321" lon="6.47981">
        <ele>1434.61</ele>
        <time>2000-01-01T16:08:30.270Z</time>
      </trkpt>
      <trkpt lat="46.20322" lon="6.47981">
        <ele>1434.5</ele>
        <time>2000-01-01T16:08:40.086Z</time>
      </trkpt>
      <trkpt lat="46.20289" lon="6.47961">
        <ele>1437.35</ele>
        <time>2000-01-01T16:23:00.123Z</time>
      </trkpt>
      <trkpt lat="46.20293" lon="6.47954">
        <ele>1439.55</ele>
        <time>2000-01-01T17:01:33.461Z</time>
      </trkpt>
      <trkpt lat="46.20326" lon="6.4797">
        <ele>1433.35</ele>
        <time>2000-01-01T17:31:48.423Z</time>
      </trkpt>
      <trkpt lat="46.20328" lon="6.47969">
        <ele>1431</ele>
        <time>2000-01-01T17:31:58.138Z</time>
      </trkpt>
      <trkpt lat="46.20338" lon="6.47975">
        <ele>1431.15</ele>
        <time>2000-01-01T17:36:37.173Z</time>
      </trkpt>
      <trkpt lat="46.20348" lon="6.47978">
        <ele>1431.5</ele>
        <time>2000-01-01T17:36:47.106Z</time>
      </trkpt>
      <trkpt lat="46.20371" lon="6.47978">
        <ele>1431.28</ele>
        <time>2000-01-01T17:36:56.181Z</time>
      </trkpt>
      <trkpt lat="46.20395" lon="6.47981">
        <ele>1431.29</ele>
        <time>2000-01-01T17:37:06.118Z</time>
      </trkpt>
      <trkpt lat="46.20413" lon="6.47976">
        <ele>1431.1</ele>
        <time>2000-01-01T17:37:15.121Z</time>
      </trkpt>
      <trkpt lat="46.20415" lon="6.47974">
        <ele>1431</ele>
        <time>2000-01-01T17:37:25.054Z</time>
      </trkpt>
      <trkpt lat="46.20433" lon="6.47946">
        <ele>1430.25</ele>
        <time>2000-01-01T17:37:37.139Z</time>
      </trkpt>
      <trkpt lat="46.20444" lon="6.47936">
        <ele>1429.92</ele>
        <time>2000-01-01T17:37:46.194Z</time>
      </trkpt>
      <trkpt lat="46.20457" lon="6.47935">
        <ele>1429.5</ele>
        <time>2000-01-01T17:37:55.239Z</time>
      </trkpt>
      <trkpt lat="46.20494" lon="6.47932">
        <ele>1429.8</ele>
        <time>2000-01-01T17:38:27.137Z</time>
      </trkpt>
      <trkpt lat="46.20497" lon="6.47932">
        <ele>1429.8</ele>
        <time>2000-01-01T17:38:37.045Z</time>
      </trkpt>
      <trkpt lat="46.20533" lon="6.47928">
        <ele>1429.2</ele>
        <time>2000-01-01T17:39:19.140Z</time>
      </trkpt>
      <trkpt lat="46.20535" lon="6.47928">
        <ele>1429</ele>
        <time>2000-01-01T17:39:28.236Z</time>
      </trkpt>
      <trkpt lat="46.20564" lon="6.47895">
        <ele>1430.73</ele>
        <time>2000-01-01T17:40:17.168Z</time>
      </trkpt>
      <trkpt lat="46.20564" lon="6.47893">
        <ele>1431.5</ele>
        <time>2000-01-01T17:40:27.118Z</time>
      </trkpt>
      <trkpt lat="46.20558" lon="6.47841">
        <ele>1433.6</ele>
        <time>2000-01-01T17:41:35.225Z</time>
      </trkpt>
      <trkpt lat="46.20558" lon="6.47839">
        <ele>1434.8</ele>
        <time>2000-01-01T17:41:45.031Z</time>
      </trkpt>
      <trkpt lat="46.20559" lon="6.47787">
        <ele>1438.1</ele>
        <time>2000-01-01T17:43:23.202Z</time>
      </trkpt>
      <trkpt lat="46.20558" lon="6.47784">
        <ele>1439.2</ele>
        <time>2000-01-01T17:43:33.116Z</time>
      </trkpt>
      <trkpt lat="46.20558" lon="6.47732">
        <ele>1440.03</ele>
        <time>2000-01-01T17:44:34.189Z</time>
      </trkpt>
      <trkpt lat="46.20559" lon="6.4773">
        <ele>1440.4</ele>
        <time>2000-01-01T17:44:44.049Z</time>
      </trkpt>
      <trkpt lat="46.20566" lon="6.47678">
        <ele>1441.53</ele>
        <time>2000-01-01T17:46:21.097Z</time>
      </trkpt>
      <trkpt lat="46.20567" lon="6.47677">
        <ele>1442.2</ele>
        <time>2000-01-01T17:46:30.168Z</time>
      </trkpt>
      <trkpt lat="46.2057" lon="6.47665">
        <ele>1442.52</ele>
        <time>2000-01-01T17:46:40.164Z</time>
      </trkpt>
      <trkpt lat="46.20574" lon="6.47638">
        <ele>1443.39</ele>
        <time>2000-01-01T17:46:49.165Z</time>
      </trkpt>
      <trkpt lat="46.20577" lon="6.47604">
        <ele>1445.33</ele>
        <time>2000-01-01T17:46:58.175Z</time>
      </trkpt>
      <trkpt lat="46.20577" lon="6.47578">
        <ele>1446.35</ele>
        <time>2000-01-01T17:47:08.198Z</time>
      </trkpt>
      <trkpt lat="46.20575" lon="6.47548">
        <ele>1448.42</ele>
        <time>2000-01-01T17:47:17.205Z</time>
      </trkpt>
      <trkpt lat="46.20566" lon="6.47496">
        <ele>1451.27</ele>
        <time>2000-01-01T17:47:53.111Z</time>
      </trkpt>
      <trkpt lat="46.20565" lon="6.47492">
        <ele>1452.6</ele>
        <time>2000-01-01T17:48:02.116Z</time>
      </trkpt>
      <trkpt lat="46.20548" lon="6.47446">
        <ele>1454.77</ele>
        <time>2000-01-01T17:48:26.177Z</time>
      </trkpt>
      <trkpt lat="46.20546" lon="6.47442">
        <ele>1455.9</ele>
        <time>2000-01-01T17:48:36.036Z</time>
      </trkpt>
      <trkpt lat="46.20527" lon="6.47397">
        <ele>1458.45</ele>
        <time>2000-01-01T17:48:59.175Z</time>
      </trkpt>
      <trkpt lat="46.20526" lon="6.47393">
        <ele>1459.3</ele>
        <time>2000-01-01T17:49:09.042Z</time>
      </trkpt>
      <trkpt lat="46.20506" lon="6.47437">
        <ele>1460.43</ele>
        <time>2000-01-01T18:03:32.192Z</time>
      </trkpt>
      <trkpt lat="46.20506" lon="6.4744">
        <ele>1461.2</ele>
        <time>2000-01-01T18:03:42.065Z</time>
      </trkpt>
      <trkpt lat="46.20481" lon="6.47475">
        <ele>1470.2</ele>
        <time>2000-01-01T18:04:56.095Z</time>
      </trkpt>
      <trkpt lat="46.2048" lon="6.47476">
        <ele>1473.6</ele>
        <time>2000-01-01T18:05:05.119Z</time>
      </trkpt>
      <trkpt lat="46.20501" lon="6.47438">
        <ele>1472.63</ele>
        <time>2000-01-01T18:10:52.125Z</time>
      </trkpt>
      <trkpt lat="46.20501" lon="6.47427">
        <ele>1472.2</ele>
        <time>2000-01-01T18:11:02.033Z</time>
      </trkpt>
      <trkpt lat="46.20506" lon="6.47376">
        <ele>1465.23</ele>
        <time>2000-01-01T18:12:31.048Z</time>
      </trkpt>
      <trkpt lat="46.20508" lon="6.47372">
        <ele>1462.8</ele>
        <time>2000-01-01T18:12:41.094Z</time>
      </trkpt>
      <trkpt lat="46.20493" lon="6.4742">
        <ele>1462.13</ele>
        <time>2000-01-01T18:24:44.160Z</time>
      </trkpt>
      <trkpt lat="46.20493" lon="6.47423">
        <ele>1461.7</ele>
        <time>2000-01-01T18:24:54.092Z</time>
      </trkpt>
      <trkpt lat="46.20503" lon="6.47373">
        <ele>1460.73</ele>
        <time>2000-01-01T18:35:58.111Z</time>
      </trkpt>
      <trkpt lat="46.20504" lon="6.47368">
        <ele>1460.4</ele>
        <time>2000-01-01T18:36:08.055Z</time>
      </trkpt>
      <trkpt lat="46.20506" lon="6.47359">
        <ele>1460.48</ele>
        <time>2000-01-01T18:39:18.116Z</time>
      </trkpt>
      <trkpt lat="46.20506" lon="6.47355">
        <ele>1459.42</ele>
        <time>2000-01-01T18:50:34.034Z</time>
      </trkpt>
      <trkpt lat="46.20497" lon="6.47348">
        <ele>1458.7</ele>
        <time>2000-01-01T18:50:43.999Z</time>
      </trkpt>
      <trkpt lat="46.20464" lon="6.47325">
        <ele>1456.15</ele>
        <time>2000-01-01T18:54:29.101Z</time>
      </trkpt>
      <trkpt lat="46.20448" lon="6.47317">
        <ele>1454.63</ele>
        <time>2000-01-01T18:54:39.101Z</time>
      </trkpt>
      <trkpt lat="46.20438" lon="6.47311">
        <ele>1453.4</ele>
        <time>2000-01-01T18:54:49.037Z</time>
      </trkpt>
      <trkpt lat="46.2043" lon="6.47305">
        <ele>1451.9</ele>
        <time>2000-01-01T18:55:04.032Z</time>
      </trkpt>
      <trkpt lat="46.2041" lon="6.473">
        <ele>1448.1</ele>
        <time>2000-01-01T18:55:14.015Z</time>
      </trkpt>
      <trkpt lat="46.20394" lon="6.47306">
        <ele>1443.27</ele>
        <time>2000-01-01T18:55:23.094Z</time>
      </trkpt>
      <trkpt lat="46.20379" lon="6.47302">
        <ele>1438.2</ele>
        <time>2000-01-01T18:55:33.036Z</time>
      </trkpt>
      <trkpt lat="46.2037" lon="6.47296">
        <ele>1434.97</ele>
        <time>2000-01-01T18:55:42.155Z</time>
      </trkpt>
      <trkpt lat="46.20367" lon="6.47292">
        <ele>1433.5</ele>
        <time>2000-01-01T18:55:51.991Z</time>
      </trkpt>
      <trkpt lat="46.20353" lon="6.47259">
        <ele>1429.9</ele>
        <time>2000-01-01T18:57:13.042Z</time>
      </trkpt>
      <trkpt lat="46.20344" lon="6.47258">
        <ele>1427.5</ele>
        <time>2000-01-01T18:57:22.060Z</time>
      </trkpt>
      <trkpt lat="46.20347" lon="6.47245">
        <ele>1425.7</ele>
        <time>2000-01-01T19:01:19.028Z</time>
      </trkpt>
      <trkpt lat="46.2035" lon="6.47233">
        <ele>1425.3</ele>
        <time>2000-01-01T19:01:29.040Z</time>
      </trkpt>
      <trkpt lat="46.20324" lon="6.47237">
        <ele>1423.65</ele>
        <time>2000-01-01T19:04:09.141Z</time>
      </trkpt>
      <trkpt lat="46.20308" lon="6.47233">
        <ele>1420.21</ele>
        <time>2000-01-01T19:04:19.112Z</time>
      </trkpt>
      <trkpt lat="46.20291" lon="6.47233">
        <ele>1416.73</ele>
        <time>2000-01-01T19:04:29.090Z</time>
      </trkpt>
      <trkpt lat="46.20278" lon="6.47233">
        <ele>1413.17</ele>
        <time>2000-01-01T19:04:39.016Z</time>
      </trkpt>
      <trkpt lat="46.2027" lon="6.47233">
        <ele>1411.2</ele>
        <time>2000-01-01T19:04:48.927Z</time>
      </trkpt>
      <trkpt lat="46.20265" lon="6.47234">
        <ele>1408.42</ele>
        <time>2000-01-01T19:07:47.053Z</time>
      </trkpt>
      <trkpt lat="46.20279" lon="6.47246">
        <ele>1407.14</ele>
        <time>2000-01-01T19:07:57.223Z</time>
      </trkpt>
      <trkpt lat="46.20293" lon="6.47253">
        <ele>1409.25</ele>
        <time>2000-01-01T19:08:07.098Z</time>
      </trkpt>
      <trkpt lat="46.20293" lon="6.47255">
        <ele>1410</ele>
        <time>2000-01-01T19:08:17.011Z</time>
      </trkpt>
      <trkpt lat="46.20278" lon="6.47207">
        <ele>1409.18</ele>
        <time>2000-01-01T19:08:57.025Z</time>
      </trkpt>
      <trkpt lat="46.20276" lon="6.47204">
        <ele>1409.2</ele>
        <time>2000-01-01T19:09:06.942Z</time>
      </trkpt>
      <trkpt lat="46.20241" lon="6.47215">
        <ele>1408.07</ele>
        <time>2000-01-01T19:14:27.051Z</time>
      </trkpt>
      <trkpt lat="46.20216" lon="6.4722">
        <ele>1407.08</ele>
        <time>2000-01-01T19:16:49.089Z</time>
      </trkpt>
      <trkpt lat="46.20213" lon="6.47218">
        <ele>1406.5</ele>
        <time>2000-01-01T19:16:59.020Z</time>
      </trkpt>
      <trkpt lat="46.20201" lon="6.4721">
        <ele>1405.23</ele>
        <time>2000-01-01T19:17:49.993Z</time>
      </trkpt>
      <trkpt lat="46.20196" lon="6.47208">
        <ele>1403.7</ele>
        <time>2000-01-01T19:17:59.027Z</time>
      </trkpt>
      <trkpt lat="46.20166" lon="6.4718">
        <ele>1399.35</ele>
        <time>2000-01-01T19:18:24.106Z</time>
      </trkpt>
      <trkpt lat="46.20164" lon="6.47177">
        <ele>1397.6</ele>
        <time>2000-01-01T19:18:33.925Z</time>
      </trkpt>
      <trkpt lat="46.20135" lon="6.47144">
        <ele>1395.5</ele>
        <time>2000-01-01T19:19:02.009Z</time>
      </trkpt>
      <trkpt lat="46.20132" lon="6.4714">
        <ele>1394.7</ele>
        <time>2000-01-01T19:19:11.954Z</time>
      </trkpt>
      <trkpt lat="46.20104" lon="6.47107">
        <ele>1390.73</ele>
        <time>2000-01-01T19:19:58.044Z</time>
      </trkpt>
      <trkpt lat="46.20103" lon="6.47105">
        <ele>1389.1</ele>
        <time>2000-01-01T19:20:07.932Z</time>
      </trkpt>
      <trkpt lat="46.20073" lon="6.47074">
        <ele>1385.8</ele>
        <time>2000-01-01T19:20:42.971Z</time>
      </trkpt>
      <trkpt lat="46.20064" lon="6.47068">
        <ele>1383.61</ele>
        <time>2000-01-01T19:20:51.979Z</time>
      </trkpt>
      <trkpt lat="46.2005" lon="6.4707">
        <ele>1380.63</ele>
        <time>2000-01-01T19:21:02.045Z</time>
      </trkpt>
      <trkpt lat="46.20046" lon="6.47068">
        <ele>1380.2</ele>
        <time>2000-01-01T19:21:11.909Z</time>
      </trkpt>
      <trkpt lat="46.20015" lon="6.47041">
        <ele>1375.32</ele>
        <time>2000-01-01T19:21:58.043Z</time>
      </trkpt>
      <trkpt lat="46.20014" lon="6.47038">
        <ele>1373.6</ele>
        <time>2000-01-01T19:22:07.990Z</time>
      </trkpt>
      <trkpt lat="46.19987" lon="6.47002">
        <ele>1371.58</ele>
        <time>2000-01-01T19:24:12.033Z</time>
      </trkpt>
      <trkpt lat="46.19984" lon="6.46999">
        <ele>1370.3</ele>
        <time>2000-01-01T19:24:21.942Z</time>
      </trkpt>
      <trkpt lat="46.19953" lon="6.46973">
        <ele>1365.35</ele>
        <time>2000-01-01T19:25:01.958Z</time>
      </trkpt>
      <trkpt lat="46.1995" lon="6.46975">
        <ele>1361.8</ele>
        <time>2000-01-01T19:25:10.991Z</time>
      </trkpt>
      <trkpt lat="46.19919" lon="6.4695">
        <ele>1356.77</ele>
        <time>2000-01-01T19:32:11.165Z</time>
      </trkpt>
      <trkpt lat="46.19917" lon="6.46946">
        <ele>1354.8</ele>
        <time>2000-01-01T19:32:21.015Z</time>
      </trkpt>
      <trkpt lat="46.19905" lon="6.46898">
        <ele>1349.18</ele>
        <time>2000-01-01T19:32:49.075Z</time>
      </trkpt>
      <trkpt lat="46.19905" lon="6.46893">
        <ele>1346.7</ele>
        <time>2000-01-01T19:32:58.159Z</time>
      </trkpt>
      <trkpt lat="46.19902" lon="6.46863">
        <ele>1344.23</ele>
        <time>2000-01-01T19:33:12.089Z</time>
      </trkpt>
      <trkpt lat="46.19902" lon="6.46858">
        <ele>1342.8</ele>
        <time>2000-01-01T19:33:22.090Z</time>
      </trkpt>
      <trkpt lat="46.19901" lon="6.46806">
        <ele>1337.02</ele>
        <time>2000-01-01T19:33:50.120Z</time>
      </trkpt>
      <trkpt lat="46.199" lon="6.46801">
        <ele>1334.7</ele>
        <time>2000-01-01T19:34:00.011Z</time>
      </trkpt>
      <trkpt lat="46.19884" lon="6.46766">
        <ele>1331.85</ele>
        <time>2000-01-01T19:34:23.155Z</time>
      </trkpt>
      <trkpt lat="46.1987" lon="6.46747">
        <ele>1330.06</ele>
        <time>2000-01-01T19:34:33.140Z</time>
      </trkpt>
      <trkpt lat="46.1985" lon="6.46702">
        <ele>1327.6</ele>
        <time>2000-01-01T19:35:10.110Z</time>
      </trkpt>
      <trkpt lat="46.19849" lon="6.46697">
        <ele>1325.9</ele>
        <time>2000-01-01T19:35:20.013Z</time>
      </trkpt>
      <trkpt lat="46.19828" lon="6.46654">
        <ele>1320.35</ele>
        <time>2000-01-01T19:35:46.111Z</time>
      </trkpt>
      <trkpt lat="46.19827" lon="6.46651">
        <ele>1318.2</ele>
        <time>2000-01-01T19:35:56.051Z</time>
      </trkpt>
      <trkpt lat="46.19802" lon="6.46613">
        <ele>1314.9</ele>
        <time>2000-01-01T19:36:24.164Z</time>
      </trkpt>
      <trkpt lat="46.198" lon="6.46611">
        <ele>1313.4</ele>
        <time>2000-01-01T19:36:34.097Z</time>
      </trkpt>
      <trkpt lat="46.19775" lon="6.46572">
        <ele>1311</ele>
        <time>2000-01-01T19:38:15.166Z</time>
      </trkpt>
      <trkpt lat="46.19773" lon="6.46572">
        <ele>1310.5</ele>
        <time>2000-01-01T19:38:25.108Z</time>
      </trkpt>
      <trkpt lat="46.19747" lon="6.46538">
        <ele>1303.45</ele>
        <time>2000-01-01T19:42:03.151Z</time>
      </trkpt>
      <trkpt lat="46.19746" lon="6.46536">
        <ele>1300.6</ele>
        <time>2000-01-01T19:42:13.074Z</time>
      </trkpt>
    </trkseg>
  </trk>
</gpx>